sensor_id;sensor_type;location;lat;lon;timestamp;pressure;altitude;pressure_sealevel;temperature;humidity
71915;BME280;60387;49.994;14.660;2022-09-01T00:00:36;98123.22;;;18.34;56.44
71915;BME280;60387;49.994;14.660;2022-09-01T00:03:09;98120.03;;;18.32;57.24
71915;BME280;60387;49.994;14.660;2022-09-01T00:05:43;98125.16;;;18.34;56.88
71915;BME280;60387;49.994;14.660;2022-09-01T00:08:16;98124.00;;;18.35;56.68
71915;BME280;60387;49.994;14.660;2022-09-01T00:10:50;98123.88;;;18.31;56.65
71915;BME280;60387;49.994;14.660;2022-09-01T00:13:23;98121.97;;;18.32;56.44
71915;BME280;60387;49.994;14.660;2022-09-01T00:15:56;98124.69;;;18.32;56.44
71915;BME280;60387;49.994;14.660;2022-09-01T00:18:30;98128.34;;;18.36;56.75
71915;BME280;60387;49.994;14.660;2022-09-01T00:21:03;98119.66;;;18.34;56.59
71915;BME280;60387;49.994;14.660;2022-09-01T00:23:36;98123.22;;;18.34;56.40
71915;BME280;60387;49.994;14.660;2022-09-01T00:26:10;98122.41;;;18.34;55.94
71915;BME280;60387;49.994;14.660;2022-09-01T00:28:44;98116.94;;;18.34;55.94
71915;BME280;60387;49.994;14.660;2022-09-01T00:31:18;98133.19;;;18.39;56.04
71915;BME280;60387;49.994;14.660;2022-09-01T00:33:52;98124.50;;;18.37;56.21
71915;BME280;60387;49.994;14.660;2022-09-01T00:36:25;98124.13;;;18.38;55.96
71915;BME280;60387;49.994;14.660;2022-09-01T00:38:58;98123.34;;;18.38;56.04
71915;BME280;60387;49.994;14.660;2022-09-01T00:41:34;98116.16;;;18.33;56.04
71915;BME280;60387;49.994;14.660;2022-09-01T00:44:12;98120.59;;;18.38;56.21
71915;BME280;60387;49.994;14.660;2022-09-01T00:46:48;98126.44;;;18.36;56.02
71915;BME280;60387;49.994;14.660;2022-09-01T00:49:29;98124.50;;;18.37;56.11
71915;BME280;60387;49.994;14.660;2022-09-01T00:55:10;98124.00;;;18.35;56.14
71915;BME280;60387;49.994;14.660;2022-09-01T00:57:44;98120.50;;;18.34;56.12
71915;BME280;60387;49.994;14.660;2022-09-01T01:00:20;98114.19;;;18.34;55.76
71915;BME280;60387;49.994;14.660;2022-09-01T01:02:55;98112.25;;;18.34;55.87
71915;BME280;60387;49.994;14.660;2022-09-01T01:05:32;98115.34;;;18.33;55.76
71915;BME280;60387;49.994;14.660;2022-09-01T01:08:09;98118.53;;;18.35;56.04
71915;BME280;60387;49.994;14.660;2022-09-01T01:10:42;98123.22;;;18.34;55.84
71915;BME280;60387;49.994;14.660;2022-09-01T01:13:16;98111.00;;;18.32;56.05
71915;BME280;60387;49.994;14.660;2022-09-01T01:15:49;98113.72;;;18.32;55.97
71915;BME280;60387;49.994;14.660;2022-09-01T01:18:22;98108.91;;;18.29;55.95
71915;BME280;60387;49.994;14.660;2022-09-01T01:21:06;98103.44;;;18.29;55.96
71915;BME280;60387;49.994;14.660;2022-09-01T01:23:53;98102.16;;;18.26;56.12
71915;BME280;60387;49.994;14.660;2022-09-01T01:26:29;98105.94;;;18.22;56.11
71915;BME280;60387;49.994;14.660;2022-09-01T01:29:03;98099.28;;;18.23;55.96
71915;BME280;60387;49.994;14.660;2022-09-01T01:31:36;98107.53;;;18.23;55.92
71915;BME280;60387;49.994;14.660;2022-09-01T01:34:09;98106.38;;;18.24;56.04
71915;BME280;60387;49.994;14.660;2022-09-01T01:36:43;98107.53;;;18.23;56.05
71915;BME280;60387;49.994;14.660;2022-09-01T01:39:21;98110.97;;;18.20;55.90
71915;BME280;60387;49.994;14.660;2022-09-01T01:41:56;98095.63;;;18.07;56.24
71915;BME280;60387;49.994;14.660;2022-09-01T01:44:30;98098.16;;;18.12;56.18
71915;BME280;60387;49.994;14.660;2022-09-01T01:47:05;98101.91;;;18.07;56.12
71915;BME280;60387;49.994;14.660;2022-09-01T01:49:40;98096.31;;;18.04;56.44
71915;BME280;60387;49.994;14.660;2022-09-01T01:52:13;98093.31;;;17.97;56.41
71915;BME280;60387;49.994;14.660;2022-09-01T01:54:47;98094.47;;;17.96;56.26
71915;BME280;60387;49.994;14.660;2022-09-01T01:57:20;98099.00;;;17.92;56.35
71915;BME280;60387;49.994;14.660;2022-09-01T01:59:53;98091.78;;;17.87;56.43
71915;BME280;60387;49.994;14.660;2022-09-01T02:02:26;98102.19;;;17.82;56.15
71915;BME280;60387;49.994;14.660;2022-09-01T02:05:00;98100.78;;;17.76;56.33
71915;BME280;60387;49.994;14.660;2022-09-01T02:07:33;98098.28;;;17.71;56.38
71915;BME280;60387;49.994;14.660;2022-09-01T02:10:06;98102.16;;;17.70;56.41
71915;BME280;60387;49.994;14.660;2022-09-01T02:12:40;98098.16;;;17.67;56.41
71915;BME280;60387;49.994;14.660;2022-09-01T02:15:13;98103.03;;;17.62;56.84
71915;BME280;60387;49.994;14.660;2022-09-01T02:17:46;98096.16;;;17.56;56.44
71915;BME280;60387;49.994;14.660;2022-09-01T02:20:20;98107.78;;;17.53;56.64
71915;BME280;60387;49.994;14.660;2022-09-01T02:22:53;98097.38;;;17.46;56.72
71915;BME280;60387;49.994;14.660;2022-09-01T02:25:27;98105.25;;;17.48;56.51
71915;BME280;60387;49.994;14.660;2022-09-01T02:28:01;98109.94;;;17.47;56.81
71915;BME280;60387;49.994;14.660;2022-09-01T02:30:34;98096.44;;;17.42;56.80
71915;BME280;60387;49.994;14.660;2022-09-01T02:33:07;98110.28;;;17.46;56.95
71915;BME280;60387;49.994;14.660;2022-09-01T02:35:41;98103.06;;;17.41;57.06
71915;BME280;60387;49.994;14.660;2022-09-01T02:38:14;98104.06;;;17.37;57.01
71915;BME280;60387;49.994;14.660;2022-09-01T02:40:48;98111.16;;;17.38;57.01
71915;BME280;60387;49.994;14.660;2022-09-01T02:43:21;98106.66;;;17.33;57.29
71915;BME280;60387;49.994;14.660;2022-09-01T02:45:57;98102.63;;;17.31;57.26
71915;BME280;60387;49.994;14.660;2022-09-01T02:51:07;98112.00;;;17.30;57.32
71915;BME280;60387;49.994;14.660;2022-09-01T02:53:42;98098.50;;;17.25;57.14
71915;BME280;60387;49.994;14.660;2022-09-01T02:56:15;98106.69;;;17.25;57.10
71915;BME280;60387;49.994;14.660;2022-09-01T02:58:49;98101.72;;;17.27;57.06
71915;BME280;60387;49.994;14.660;2022-09-01T03:01:27;98106.38;;;17.26;57.36
71915;BME280;60387;49.994;14.660;2022-09-01T03:04:03;98103.19;;;17.24;57.37
71915;BME280;60387;49.994;14.660;2022-09-01T03:06:37;98101.13;;;17.21;57.41
71915;BME280;60387;49.994;14.660;2022-09-01T03:09:14;98086.28;;;17.22;57.52
71915;BME280;60387;49.994;14.660;2022-09-01T03:11:49;98094.84;;;17.21;57.51
71915;BME280;60387;49.994;14.660;2022-09-01T03:14:23;98090.16;;;17.21;57.41
71915;BME280;60387;49.994;14.660;2022-09-01T03:16:56;98097.09;;;17.19;57.58
71915;BME280;60387;49.994;14.660;2022-09-01T03:19:30;98082.16;;;17.16;57.49
71915;BME280;60387;49.994;14.660;2022-09-01T03:22:03;98081.00;;;17.17;57.60
71915;BME280;60387;49.994;14.660;2022-09-01T03:24:36;98080.69;;;17.19;57.68
71915;BME280;60387;49.994;14.660;2022-09-01T03:27:09;98082.16;;;17.16;57.92
71915;BME280;60387;49.994;14.660;2022-09-01T03:29:43;98087.75;;;17.20;58.09
71915;BME280;60387;49.994;14.660;2022-09-01T03:32:16;98079.41;;;17.16;57.83
71915;BME280;60387;49.994;14.660;2022-09-01T03:34:49;98082.47;;;17.15;58.08
71915;BME280;60387;49.994;14.660;2022-09-01T03:37:23;98072.66;;;17.14;58.01
71915;BME280;60387;49.994;14.660;2022-09-01T03:39:56;98078.94;;;17.14;57.91
71915;BME280;60387;49.994;14.660;2022-09-01T03:42:29;98083.47;;;17.10;57.77
71915;BME280;60387;49.994;14.660;2022-09-01T03:45:04;98091.81;;;17.14;57.83
71915;BME280;60387;49.994;14.660;2022-09-01T03:47:38;98081.41;;;17.07;57.66
71915;BME280;60387;49.994;14.660;2022-09-01T03:50:16;98093.28;;;17.11;58.16
71915;BME280;60387;49.994;14.660;2022-09-01T03:52:56;98088.94;;;17.10;58.09
71915;BME280;60387;49.994;14.660;2022-09-01T03:55:31;98089.63;;;17.07;58.21
71915;BME280;60387;49.994;14.660;2022-09-01T03:58:07;98087.22;;;17.06;58.14
71915;BME280;60387;49.994;14.660;2022-09-01T04:00:44;98096.56;;;17.05;57.75
71915;BME280;60387;49.994;14.660;2022-09-01T04:03:18;98084.34;;;17.02;58.10
71915;BME280;60387;49.994;14.660;2022-09-01T04:05:52;98084.34;;;17.02;57.89
71915;BME280;60387;49.994;14.660;2022-09-01T04:08:26;98083.88;;;17.00;58.24
71915;BME280;60387;49.994;14.660;2022-09-01T04:11:11;98053.91;;;16.83;57.97
71915;BME280;60387;49.994;14.660;2022-09-01T04:13:44;98086.94;;;16.99;58.13
71915;BME280;60387;49.994;14.660;2022-09-01T04:16:21;98095.66;;;17.01;58.21
71915;BME280;60387;49.994;14.660;2022-09-01T04:18:54;98079.09;;;16.97;58.11
71915;BME280;60387;49.994;14.660;2022-09-01T04:21:27;98092.09;;;17.00;58.15
71915;BME280;60387;49.994;14.660;2022-09-01T04:24:01;98087.63;;;16.96;58.13
71915;BME280;60387;49.994;14.660;2022-09-01T04:26:34;98090.69;;;16.94;58.32
71915;BME280;60387;49.994;14.660;2022-09-01T04:29:07;98099.38;;;16.96;58.31
71915;BME280;60387;49.994;14.660;2022-09-01T04:31:41;98093.09;;;16.96;58.17
71915;BME280;60387;49.994;14.660;2022-09-01T04:34:14;98099.38;;;16.96;58.02
71915;BME280;60387;49.994;14.660;2022-09-01T04:36:47;98107.91;;;16.95;58.33
71915;BME280;60387;49.994;14.660;2022-09-01T04:39:21;98095.38;;;16.94;57.96
71915;BME280;60387;49.994;14.660;2022-09-01T04:41:55;98104.34;;;16.94;58.00
71915;BME280;60387;49.994;14.660;2022-09-01T04:44:28;98100.84;;;16.94;58.14
71915;BME280;60387;49.994;14.660;2022-09-01T04:47:01;98107.91;;;16.95;58.10
71915;BME280;60387;49.994;14.660;2022-09-01T04:49:35;98104.34;;;16.94;57.91
71915;BME280;60387;49.994;14.660;2022-09-01T04:52:08;98108.06;;;16.98;57.92
71915;BME280;60387;49.994;14.660;2022-09-01T04:54:41;98105.00;;;17.00;58.02
71915;BME280;60387;49.994;14.660;2022-09-01T04:57:15;98104.63;;;17.01;57.95
71915;BME280;60387;49.994;14.660;2022-09-01T04:59:48;98105.00;;;17.00;57.92
71915;BME280;60387;49.994;14.660;2022-09-01T05:02:21;98108.19;;;17.02;58.20
71915;BME280;60387;49.994;14.660;2022-09-01T05:04:54;98106.59;;;17.01;57.79
71915;BME280;60387;49.994;14.660;2022-09-01T05:07:28;98118.91;;;17.07;58.05
71915;BME280;60387;49.994;14.660;2022-09-01T05:10:01;98114.59;;;17.06;57.99
71915;BME280;60387;49.994;14.660;2022-09-01T05:12:34;98107.50;;;17.05;58.07
71915;BME280;60387;49.994;14.660;2022-09-01T05:15:08;98108.56;;;17.12;58.02
71915;BME280;60387;49.994;14.660;2022-09-01T05:17:41;98109.06;;;17.14;57.85
71915;BME280;60387;49.994;14.660;2022-09-01T05:20:15;98113.19;;;17.20;58.04
71915;BME280;60387;49.994;14.660;2022-09-01T05:22:48;98105.91;;;17.24;58.03
71915;BME280;60387;49.994;14.660;2022-09-01T05:25:21;98097.38;;;17.26;58.02
71915;BME280;60387;49.994;14.660;2022-09-01T05:27:54;98108.41;;;17.38;59.13
71915;BME280;60387;49.994;14.660;2022-09-01T05:30:28;98110.59;;;17.44;58.61
71915;BME280;60387;49.994;14.660;2022-09-01T05:33:01;98113.41;;;17.56;58.52
71915;BME280;60387;49.994;14.660;2022-09-01T05:35:35;98115.38;;;17.68;58.33
71915;BME280;60387;49.994;14.660;2022-09-01T05:38:10;98114.38;;;17.72;58.39
71915;BME280;60387;49.994;14.660;2022-09-01T05:40:44;98117.59;;;17.86;58.34
71915;BME280;60387;49.994;14.660;2022-09-01T05:43:17;98115.44;;;17.92;58.26
71915;BME280;60387;49.994;14.660;2022-09-01T05:45:50;98116.38;;;17.96;58.07
71915;BME280;60387;49.994;14.660;2022-09-01T05:48:24;98119.38;;;18.03;58.02
71915;BME280;60387;49.994;14.660;2022-09-01T05:50:57;98110.59;;;18.09;58.57
71915;BME280;60387;49.994;14.660;2022-09-01T05:53:31;98119.50;;;18.18;58.35
71915;BME280;60387;49.994;14.660;2022-09-01T05:56:07;98122.03;;;18.23;57.67
71915;BME280;60387;49.994;14.660;2022-09-01T05:58:41;98121.25;;;18.23;58.28
71915;BME280;60387;49.994;14.660;2022-09-01T06:01:16;98125.38;;;18.29;58.13
71915;BME280;60387;49.994;14.660;2022-09-01T06:03:51;98122.41;;;18.34;57.85
71915;BME280;60387;49.994;14.660;2022-09-01T06:06:26;98128.84;;;18.38;58.15
71915;BME280;60387;49.994;14.660;2022-09-01T06:09:00;98123.00;;;18.39;58.12
71915;BME280;60387;49.994;14.660;2022-09-01T06:11:34;98124.25;;;18.42;57.53
71915;BME280;60387;49.994;14.660;2022-09-01T06:14:07;98124.03;;;18.47;57.63
71915;BME280;60387;49.994;14.660;2022-09-01T06:16:41;98134.31;;;18.50;57.89
71915;BME280;60387;49.994;14.660;2022-09-01T06:19:14;98137.19;;;18.53;57.54
71915;BME280;60387;49.994;14.660;2022-09-01T06:21:48;98131.13;;;18.60;57.61
71915;BME280;60387;49.994;14.660;2022-09-01T06:24:21;98128.81;;;18.62;57.62
71915;BME280;60387;49.994;14.660;2022-09-01T06:26:54;98129.75;;;18.66;57.31
71915;BME280;60387;49.994;14.660;2022-09-01T06:29:27;98131.91;;;18.72;57.47
71915;BME280;60387;49.994;14.660;2022-09-01T06:32:01;98133.75;;;18.80;57.01
71915;BME280;60387;49.994;14.660;2022-09-01T06:34:37;98137.88;;;18.86;56.54
71915;BME280;60387;49.994;14.660;2022-09-01T06:37:11;98129.03;;;18.93;56.43
71915;BME280;60387;49.994;14.660;2022-09-01T06:39:45;98147.13;;;18.94;56.06
71915;BME280;60387;49.994;14.660;2022-09-01T06:42:18;98151.13;;;18.96;56.10
71915;BME280;60387;49.994;14.660;2022-09-01T06:44:51;98141.50;;;18.90;55.23
71915;BME280;60387;49.994;14.660;2022-09-01T06:47:24;98149.53;;;18.95;55.58
71915;BME280;60387;49.994;14.660;2022-09-01T06:49:58;98125.75;;;18.87;55.49
71915;BME280;60387;49.994;14.660;2022-09-01T06:52:31;98139.44;;;18.99;55.34
71915;BME280;60387;49.994;14.660;2022-09-01T06:55:05;98136.91;;;19.06;55.12
71915;BME280;60387;49.994;14.660;2022-09-01T06:57:40;98147.78;;;19.15;55.10
71915;BME280;60387;49.994;14.660;2022-09-01T07:00:14;98143.34;;;19.22;54.72
71915;BME280;60387;49.994;14.660;2022-09-01T07:02:53;98148.34;;;19.32;54.62
71915;BME280;60387;49.994;14.660;2022-09-01T07:05:26;98144.66;;;19.40;54.35
71915;BME280;60387;49.994;14.660;2022-09-01T07:08:00;98145.69;;;19.48;54.20
71915;BME280;60387;49.994;14.660;2022-09-01T07:10:41;98144.59;;;19.64;54.19
71915;BME280;60387;49.994;14.660;2022-09-01T07:13:20;98150.22;;;19.83;53.79
71915;BME280;60387;49.994;14.660;2022-09-01T07:15:54;98140.69;;;19.92;52.44
71915;BME280;60387;49.994;14.660;2022-09-01T07:18:27;98149.25;;;20.03;51.50
71915;BME280;60387;49.994;14.660;2022-09-01T07:21:01;98153.00;;;20.10;52.67
71915;BME280;60387;49.994;14.660;2022-09-01T07:23:34;98133.50;;;20.15;51.99
71915;BME280;60387;49.994;14.660;2022-09-01T07:26:07;98154.47;;;20.35;51.98
71915;BME280;60387;49.994;14.660;2022-09-01T07:28:41;98151.06;;;20.42;51.47
71915;BME280;60387;49.994;14.660;2022-09-01T07:31:26;98164.22;;;20.48;50.97
71915;BME280;60387;49.994;14.660;2022-09-01T07:34:01;98158.13;;;20.55;50.56
71915;BME280;60387;49.994;14.660;2022-09-01T07:36:35;98165.75;;;20.61;50.84
71915;BME280;60387;49.994;14.660;2022-09-01T07:39:11;98163.88;;;20.65;50.91
71915;BME280;60387;49.994;14.660;2022-09-01T07:41:45;98152.50;;;20.67;50.00
71915;BME280;60387;49.994;14.660;2022-09-01T07:44:18;98168.41;;;20.73;49.33
71915;BME280;60387;49.994;14.660;2022-09-01T07:46:51;98157.84;;;20.75;49.36
71915;BME280;60387;49.994;14.660;2022-09-01T07:49:25;98167.50;;;20.85;49.98
71915;BME280;60387;49.994;14.660;2022-09-01T07:51:58;98155.81;;;20.88;49.19
71915;BME280;60387;49.994;14.660;2022-09-01T07:54:32;98166.28;;;20.98;49.00
71915;BME280;60387;49.994;14.660;2022-09-01T07:57:05;98157.72;;;21.03;48.91
71915;BME280;60387;49.994;14.660;2022-09-01T07:59:38;98162.63;;;21.09;49.14
71915;BME280;60387;49.994;14.660;2022-09-01T08:02:11;98173.97;;;21.23;49.67
71915;BME280;60387;49.994;14.660;2022-09-01T08:04:45;98175.00;;;21.34;48.54
71915;BME280;60387;49.994;14.660;2022-09-01T08:07:21;98171.31;;;21.46;48.24
71915;BME280;60387;49.994;14.660;2022-09-01T08:09:54;98174.56;;;21.67;48.29
71915;BME280;60387;49.994;14.660;2022-09-01T08:12:27;98177.34;;;21.86;47.66
71915;BME280;60387;49.994;14.660;2022-09-01T08:15:02;98176.38;;;21.97;46.85
71915;BME280;60387;49.994;14.660;2022-09-01T08:17:36;98174.34;;;22.13;46.14
71915;BME280;60387;49.994;14.660;2022-09-01T08:20:10;98176.03;;;22.40;46.34
71915;BME280;60387;49.994;14.660;2022-09-01T08:22:44;98182.28;;;22.56;43.89
71915;BME280;60387;49.994;14.660;2022-09-01T08:25:17;98178.34;;;22.57;44.07
71915;BME280;60387;49.994;14.660;2022-09-01T08:27:51;98182.09;;;22.68;44.54
71915;BME280;60387;49.994;14.660;2022-09-01T08:30:24;98190.56;;;22.79;44.21
71915;BME280;60387;49.994;14.660;2022-09-01T08:32:58;98188.66;;;22.83;44.00
71915;BME280;60387;49.994;14.660;2022-09-01T08:35:31;98193.59;;;22.96;42.29
71915;BME280;60387;49.994;14.660;2022-09-01T08:38:05;98186.47;;;23.18;43.20
71915;BME280;60387;49.994;14.660;2022-09-01T08:40:40;98189.84;;;23.30;42.85
71915;BME280;60387;49.994;14.660;2022-09-01T08:46:26;98190.75;;;23.38;41.66
71915;BME280;60387;49.994;14.660;2022-09-01T08:49:13;98193.19;;;23.42;42.57
71915;BME280;60387;49.994;14.660;2022-09-01T08:52:07;98185.47;;;23.55;42.03
71915;BME280;60387;49.994;14.660;2022-09-01T08:57:33;98187.13;;;23.89;40.12
71915;BME280;60387;49.994;14.660;2022-09-01T09:00:10;98192.94;;;24.10;40.58
71915;BME280;60387;49.994;14.660;2022-09-01T09:05:36;98199.88;;;24.30;38.89
71915;BME280;60387;49.994;14.660;2022-09-01T09:11:00;98193.78;;;24.50;39.48
71915;BME280;60387;49.994;14.660;2022-09-01T09:16:42;98190.38;;;24.64;37.50
71915;BME280;60387;49.994;14.660;2022-09-01T09:19:33;98192.81;;;24.69;36.55
71915;BME280;60387;49.994;14.660;2022-09-01T09:22:10;98194.69;;;24.61;35.22
71915;BME280;60387;49.994;14.660;2022-09-01T09:30:00;98198.72;;;24.67;34.73
71915;BME280;60387;49.994;14.660;2022-09-01T09:32:54;98207.94;;;24.78;35.40
71915;BME280;60387;49.994;14.660;2022-09-01T09:35:42;98208.38;;;24.80;34.77
71915;BME280;60387;49.994;14.660;2022-09-01T09:38:19;98210.88;;;24.96;36.25
71915;BME280;60387;49.994;14.660;2022-09-01T09:41:16;98190.38;;;25.07;34.91
71915;BME280;60387;49.994;14.660;2022-09-01T09:46:34;98191.50;;;24.99;33.75
71915;BME280;60387;49.994;14.660;2022-09-01T09:49:28;98192.25;;;24.96;33.71
71915;BME280;60387;49.994;14.660;2022-09-01T09:54:37;98196.38;;;25.13;34.26
71915;BME280;60387;49.994;14.660;2022-09-01T09:57:13;98201.97;;;25.20;34.18
71915;BME280;60387;49.994;14.660;2022-09-01T10:00:05;98192.47;;;25.21;34.17
71915;BME280;60387;49.994;14.660;2022-09-01T10:02:43;98199.53;;;25.15;34.29
71915;BME280;60387;49.994;14.660;2022-09-01T10:10:59;98201.91;;;25.13;34.02
71915;BME280;60387;49.994;14.660;2022-09-01T10:13:33;98205.59;;;25.24;34.01
71915;BME280;60387;49.994;14.660;2022-09-01T10:16:31;98201.31;;;25.33;34.30
71915;BME280;60387;49.994;14.660;2022-09-01T10:19:05;98197.72;;;25.33;34.21
71915;BME280;60387;49.994;14.660;2022-09-01T10:21:43;98195.34;;;25.31;34.64
71915;BME280;60387;49.994;14.660;2022-09-01T10:24:33;98196.50;;;25.27;34.58
71915;BME280;60387;49.994;14.660;2022-09-01T10:27:23;98187.41;;;25.30;34.96
71915;BME280;60387;49.994;14.660;2022-09-01T10:32:50;98180.03;;;25.55;34.61
71915;BME280;60387;49.994;14.660;2022-09-01T10:35:30;98183.28;;;25.67;33.67
71915;BME280;60387;49.994;14.660;2022-09-01T10:38:07;98171.03;;;25.75;34.31
71915;BME280;60387;49.994;14.660;2022-09-01T10:40:44;98187.72;;;25.79;33.92
71915;BME280;60387;49.994;14.660;2022-09-01T10:48:56;98177.38;;;25.76;31.77
71915;BME280;60387;49.994;14.660;2022-09-01T10:54:03;98169.91;;;25.87;30.21
71915;BME280;60387;49.994;14.660;2022-09-01T10:56:47;98164.00;;;25.92;32.16
71915;BME280;60387;49.994;14.660;2022-09-01T11:02:15;98173.97;;;26.07;31.19
71915;BME280;60387;49.994;14.660;2022-09-01T11:15:38;98170.91;;;26.40;29.81
71915;BME280;60387;49.994;14.660;2022-09-01T11:18:16;98179.19;;;26.29;30.57
71915;BME280;60387;49.994;14.660;2022-09-01T11:21:28;98174.41;;;26.16;31.46
71915;BME280;60387;49.994;14.660;2022-09-01T11:27:54;98156.38;;;25.82;30.70
71915;BME280;60387;49.994;14.660;2022-09-01T11:30:08;98162.28;;;25.66;31.31
71915;BME280;60387;49.994;14.660;2022-09-01T11:32:45;98165.75;;;25.53;31.15
71915;BME280;60387;49.994;14.660;2022-09-01T11:35:21;98162.91;;;25.42;31.81
71915;BME280;60387;49.994;14.660;2022-09-01T11:38:04;98160.16;;;25.46;31.06
71915;BME280;60387;49.994;14.660;2022-09-01T11:40:39;98160.97;;;25.50;30.47
71915;BME280;60387;49.994;14.660;2022-09-01T11:43:14;98158.59;;;25.52;30.58
71915;BME280;60387;49.994;14.660;2022-09-01T11:46:07;98161.00;;;25.53;30.42
71915;BME280;60387;49.994;14.660;2022-09-01T11:48:47;98147.88;;;25.43;30.27
71915;BME280;60387;49.994;14.660;2022-09-01T11:51:21;98150.25;;;25.41;29.88
71915;BME280;60387;49.994;14.660;2022-09-01T11:53:58;98158.16;;;25.43;30.89
71915;BME280;60387;49.994;14.660;2022-09-01T11:56:32;98150.22;;;25.38;30.63
71915;BME280;60387;49.994;14.660;2022-09-01T11:59:05;98150.06;;;25.20;30.49
71915;BME280;60387;49.994;14.660;2022-09-01T12:01:39;98159.09;;;25.10;30.96
71915;BME280;60387;49.994;14.660;2022-09-01T12:04:30;98159.72;;;24.90;30.95
71915;BME280;60387;49.994;14.660;2022-09-01T12:07:10;98154.09;;;24.76;31.46
71915;BME280;60387;49.994;14.660;2022-09-01T12:09:46;98136.72;;;24.42;32.09
71915;BME280;60387;49.994;14.660;2022-09-01T12:12:36;98151.78;;;24.45;32.06
71915;BME280;60387;49.994;14.660;2022-09-01T12:15:22;98152.47;;;24.35;33.00
71915;BME280;60387;49.994;14.660;2022-09-01T12:18:18;98153.97;;;24.29;33.36
71915;BME280;60387;49.994;14.660;2022-09-01T12:20:57;98148.97;;;24.05;33.87
71915;BME280;60387;49.994;14.660;2022-09-01T12:23:36;98150.38;;;23.88;34.09
71915;BME280;60387;49.994;14.660;2022-09-01T12:26:13;98149.88;;;23.83;34.51
71915;BME280;60387;49.994;14.660;2022-09-01T12:28:47;98151.38;;;23.77;35.26
71915;BME280;60387;49.994;14.660;2022-09-01T12:31:23;98153.69;;;23.71;35.25
71915;BME280;60387;49.994;14.660;2022-09-01T12:33:56;98142.88;;;23.63;35.61
71915;BME280;60387;49.994;14.660;2022-09-01T12:36:33;98147.66;;;23.62;35.68
71915;BME280;60387;49.994;14.660;2022-09-01T12:39:31;98143.59;;;23.56;36.05
71915;BME280;60387;49.994;14.660;2022-09-01T12:53:00;98151.03;;;23.23;36.71
71915;BME280;60387;49.994;14.660;2022-09-01T12:55:35;98134.78;;;23.18;36.99
71915;BME280;60387;49.994;14.660;2022-09-01T12:58:09;98145.47;;;23.20;36.90
71915;BME280;60387;49.994;14.660;2022-09-01T13:00:59;98153.47;;;23.28;36.56
71915;BME280;60387;49.994;14.660;2022-09-01T13:03:33;98145.56;;;23.27;36.73
71915;BME280;60387;49.994;14.660;2022-09-01T13:06:07;98140.06;;;23.30;36.85
71915;BME280;60387;49.994;14.660;2022-09-01T13:08:40;98135.53;;;23.15;36.78
71915;BME280;60387;49.994;14.660;2022-09-01T13:11:17;98134.50;;;23.27;37.61
71915;BME280;60387;49.994;14.660;2022-09-01T13:13:50;98135.28;;;23.27;36.20
71915;BME280;60387;49.994;14.660;2022-09-01T13:16:24;98132.38;;;23.17;35.58
71915;BME280;60387;49.994;14.660;2022-09-01T13:18:57;98133.53;;;23.16;36.23
71915;BME280;60387;49.994;14.660;2022-09-01T13:21:32;98133.28;;;23.24;36.65
71915;BME280;60387;49.994;14.660;2022-09-01T13:24:06;98133.69;;;23.26;36.21
71915;BME280;60387;49.994;14.660;2022-09-01T13:26:39;98130.69;;;23.38;36.38
71915;BME280;60387;49.994;14.660;2022-09-01T13:29:12;98127.78;;;23.53;37.12
71915;BME280;60387;49.994;14.660;2022-09-01T13:31:46;98120.81;;;23.66;35.72
71915;BME280;60387;49.994;14.660;2022-09-01T13:34:19;98131.25;;;23.80;35.83
71915;BME280;60387;49.994;14.660;2022-09-01T13:36:52;98118.63;;;23.82;35.60
71915;BME280;60387;49.994;14.660;2022-09-01T13:39:25;98129.88;;;23.93;35.71
71915;BME280;60387;49.994;14.660;2022-09-01T13:41:59;98130.72;;;24.00;35.52
71915;BME280;60387;49.994;14.660;2022-09-01T13:44:32;98117.34;;;24.06;35.90
71915;BME280;60387;49.994;14.660;2022-09-01T13:47:06;98118.97;;;24.10;35.29
71915;BME280;60387;49.994;14.660;2022-09-01T13:49:39;98121.03;;;24.17;34.90
71915;BME280;60387;49.994;14.660;2022-09-01T13:52:12;98119.88;;;24.18;35.25
71915;BME280;60387;49.994;14.660;2022-09-01T13:54:46;98115.91;;;24.19;35.29
71915;BME280;60387;49.994;14.660;2022-09-01T13:57:19;98115.13;;;24.22;35.50
71915;BME280;60387;49.994;14.660;2022-09-01T13:59:52;98120.06;;;24.39;35.75
71915;BME280;60387;49.994;14.660;2022-09-01T14:02:25;98120.56;;;24.51;34.74
71915;BME280;60387;49.994;14.660;2022-09-01T14:04:59;98123.47;;;24.62;35.49
71915;BME280;60387;49.994;14.660;2022-09-01T14:07:32;98118.72;;;24.62;34.79
71915;BME280;60387;49.994;14.660;2022-09-01T14:10:06;98117.13;;;24.61;34.60
71915;BME280;60387;49.994;14.660;2022-09-01T14:12:40;98111.56;;;24.58;33.22
71915;BME280;60387;49.994;14.660;2022-09-01T14:15:15;98113.13;;;24.55;34.28
71915;BME280;60387;49.994;14.660;2022-09-01T14:17:50;98117.50;;;24.56;34.40
71915;BME280;60387;49.994;14.660;2022-09-01T14:20:27;98123.41;;;24.55;34.16
71915;BME280;60387;49.994;14.660;2022-09-01T14:23:02;98121.72;;;24.47;34.23
71915;BME280;60387;49.994;14.660;2022-09-01T14:25:41;98123.34;;;24.51;34.24
71915;BME280;60387;49.994;14.660;2022-09-01T14:28:16;98119.78;;;24.51;34.13
71915;BME280;60387;49.994;14.660;2022-09-01T14:30:50;98121.03;;;24.57;34.01
71915;BME280;60387;49.994;14.660;2022-09-01T14:33:23;98113.91;;;24.56;34.39
71915;BME280;60387;49.994;14.660;2022-09-01T14:35:57;98119.03;;;24.54;33.95
71915;BME280;60387;49.994;14.660;2022-09-01T14:38:30;98109.81;;;24.43;33.67
71915;BME280;60387;49.994;14.660;2022-09-01T14:41:04;98127.63;;;24.45;33.51
71915;BME280;60387;49.994;14.660;2022-09-01T14:43:37;98112.94;;;24.38;34.40
71915;BME280;60387;49.994;14.660;2022-09-01T14:46:10;98109.69;;;24.29;34.62
71915;BME280;60387;49.994;14.660;2022-09-01T14:48:44;98115.19;;;24.25;34.97